createdAt,value
2022-12-03T00:00:35.439Z,7.4
2022-12-03T00:01:42.573Z,7.4
2022-12-03T00:02:49.818Z,7.5
2022-12-03T00:03:56.441Z,7.4
2022-12-03T00:05:03.304Z,7.4
2022-12-03T00:06:10.455Z,7.4
2022-12-03T00:07:17.512Z,7.4
2022-12-03T00:08:24.649Z,7.4
2022-12-03T00:09:31.396Z,7.4
2022-12-03T00:11:45.475Z,7.4
2022-12-03T00:12:52.554Z,7.3
2022-12-03T00:13:59.637Z,7.3
2022-12-03T00:15:06.363Z,7.3
2022-12-03T00:16:13.469Z,7.3
2022-12-03T00:17:20.472Z,7.3
2022-12-03T00:18:27.538Z,7.3
2022-12-03T00:19:34.671Z,7.4
2022-12-03T00:20:41.338Z,7.3
2022-12-03T00:21:48.386Z,7.3
2022-12-03T00:22:55.452Z,7.3
2022-12-03T00:24:02.617Z,7.3
2022-12-03T00:25:09.776Z,7.3
2022-12-03T00:26:16.275Z,7.3
2022-12-03T00:27:23.411Z,7.3
2022-12-03T00:28:30.483Z,7.3
2022-12-03T00:29:37.567Z,7.3
2022-12-03T00:30:44.752Z,7.4
2022-12-03T00:31:51.324Z,7.4
2022-12-03T00:32:58.356Z,7.4
2022-12-03T00:34:05.496Z,7.3
2022-12-03T00:36:19.215Z,7.4
2022-12-03T00:37:26.289Z,7.3
2022-12-03T00:38:33.426Z,7.3
2022-12-03T00:39:40.479Z,7.3
2022-12-03T00:40:47.645Z,7.3
2022-12-03T00:41:54.185Z,7.3
2022-12-03T00:43:01.275Z,7.4
2022-12-03T00:44:08.376Z,7.4
2022-12-03T00:45:15.507Z,7.3
2022-12-03T00:47:29.237Z,7.3
2022-12-03T00:48:36.334Z,7.3
2022-12-03T00:49:43.409Z,7.3
2022-12-03T00:50:50.506Z,7.3
2022-12-03T00:53:04.222Z,7.3
2022-12-03T00:54:11.827Z,7.3
2022-12-03T00:55:18.388Z,7.3
2022-12-03T00:56:25.566Z,7.3
2022-12-03T00:57:32.609Z,7.3
2022-12-03T00:58:39.168Z,7.3
2022-12-03T00:59:46.326Z,7.3
2022-12-03T01:00:53.418Z,7.3
2022-12-03T01:02:00.591Z,7.3
2022-12-03T01:03:07.604Z,7.3
2022-12-03T01:04:14.301Z,7.3
2022-12-03T01:05:21.347Z,7.3
2022-12-03T01:06:28.408Z,7.3
2022-12-03T01:07:35.600Z,7.3
2022-12-03T01:08:42.648Z,7.3
2022-12-03T01:09:49.725Z,7.3
2022-12-03T01:10:56.333Z,7.3
2022-12-03T01:12:03.518Z,7.3
2022-12-03T01:13:10.537Z,7.3
2022-12-03T01:14:17.615Z,7.3
2022-12-03T01:15:24.235Z,7.3
2022-12-03T01:16:31.421Z,7.3
2022-12-03T01:17:38.435Z,7.3
2022-12-03T01:18:45.567Z,7.3
2022-12-03T01:19:52.681Z,7.3
2022-12-03T01:20:59.230Z,7.3
2022-12-03T01:22:06.344Z,7.3
2022-12-03T01:23:14.004Z,7.3
2022-12-03T01:24:20.565Z,7.3
2022-12-03T01:25:27.680Z,7.4
2022-12-03T01:26:34.284Z,7.4
2022-12-03T01:27:41.398Z,7.3
2022-12-03T01:28:48.463Z,7.4
2022-12-03T01:29:55.559Z,7.3
2022-12-03T01:31:02.781Z,7.3
2022-12-03T01:32:09.270Z,7.3
2022-12-03T01:34:23.496Z,7.3
2022-12-03T01:35:30.558Z,7.4
2022-12-03T01:36:37.695Z,7.3
2022-12-03T01:37:44.257Z,7.3
2022-12-03T01:39:58.441Z,7.3
2022-12-03T01:41:10.064Z,7.4
2022-12-03T01:42:12.731Z,7.4
2022-12-03T01:43:19.239Z,7.4
2022-12-03T01:44:26.399Z,7.4
2022-12-03T01:45:33.497Z,7.4
2022-12-03T01:46:40.663Z,7.4
2022-12-03T01:47:47.702Z,7.4
2022-12-03T01:48:54.272Z,7.4
2022-12-03T01:50:01.420Z,7.4
2022-12-03T01:51:08.478Z,7.4
2022-12-03T01:52:15.636Z,7.4
2022-12-03T01:53:22.196Z,7.4
2022-12-03T01:54:29.262Z,7.4
2022-12-03T01:55:36.404Z,7.4
2022-12-03T01:56:43.493Z,7.4
2022-12-03T01:57:51.158Z,7.4
2022-12-03T01:58:57.150Z,7.4
2022-12-03T02:00:04.310Z,7.4
2022-12-03T02:01:11.409Z,7.5
2022-12-03T02:02:18.519Z,7.5
2022-12-03T02:03:25.589Z,7.5
2022-12-03T02:04:32.217Z,7.5
2022-12-03T02:05:42.306Z,7.5
2022-12-03T02:06:46.426Z,7.5
2022-12-03T02:07:53.587Z,7.5
2022-12-03T02:09:00.599Z,7.5
2022-12-03T02:10:07.165Z,7.5
2022-12-03T02:11:14.385Z,7.5
2022-12-03T02:12:21.419Z,7.5
2022-12-03T02:13:28.486Z,7.5
2022-12-03T02:15:42.598Z,7.5
2022-12-03T02:16:49.288Z,7.5
2022-12-03T02:17:56.414Z,7.5
2022-12-03T02:19:03.538Z,7.5
2022-12-03T02:20:10.617Z,7.5
2022-12-03T02:21:17.179Z,7.5
2022-12-03T02:22:24.337Z,7.5
2022-12-03T02:23:31.420Z,7.5
2022-12-03T02:24:38.536Z,7.5
2022-12-03T02:25:45.601Z,7.5
2022-12-03T02:26:52.301Z,7.5
2022-12-03T02:27:59.328Z,7.5
2022-12-03T02:29:06.447Z,7.5
2022-12-03T02:30:13.538Z,7.5
2022-12-03T02:31:20.728Z,7.5
2022-12-03T02:32:27.726Z,7.5
2022-12-03T02:33:34.354Z,7.5
2022-12-03T02:34:41.485Z,7.5
2022-12-03T02:35:48.534Z,7.5
2022-12-03T02:36:55.779Z,7.5
2022-12-03T02:38:02.235Z,7.5
2022-12-03T02:39:09.320Z,7.5
2022-12-03T02:40:16.411Z,7.5
2022-12-03T02:41:23.584Z,7.5
2022-12-03T02:43:37.256Z,7.5
2022-12-03T02:44:44.379Z,7.5
2022-12-03T02:45:51.467Z,7.5
2022-12-03T02:46:58.731Z,7.5
2022-12-03T02:48:05.786Z,7.5
2022-12-03T02:49:12.255Z,7.5
2022-12-03T02:50:19.335Z,7.5
2022-12-03T02:51:26.980Z,7.5
2022-12-03T02:52:33.567Z,7.5
2022-12-03T02:53:40.672Z,7.5
2022-12-03T02:54:47.267Z,7.5
2022-12-03T02:57:01.510Z,7.5
2022-12-03T02:58:08.555Z,7.5
2022-12-03T02:59:15.694Z,7.5
2022-12-03T03:00:22.263Z,7.5
2022-12-03T03:01:30.093Z,7.5
2022-12-03T03:02:36.569Z,7.5
2022-12-03T03:03:43.602Z,7.4
2022-12-03T03:04:50.327Z,7.4
2022-12-03T03:05:57.241Z,7.4
2022-12-03T03:07:04.384Z,7.4
2022-12-03T03:08:11.617Z,7.4
2022-12-03T03:09:18.565Z,7.4
2022-12-03T03:10:25.274Z,7.4
2022-12-03T03:11:32.347Z,7.4
2022-12-03T03:12:39.630Z,7.4
2022-12-03T03:13:47.007Z,7.4
2022-12-03T03:14:54.040Z,7.4
2022-12-03T03:16:00.309Z,7.4
2022-12-03T03:17:07.267Z,7.4
2022-12-03T03:18:14.388Z,7.4
2022-12-03T03:19:21.496Z,7.4
2022-12-03T03:20:28.589Z,7.4
2022-12-03T03:21:35.265Z,7.4
2022-12-03T03:22:42.292Z,7.4
2022-12-03T03:23:49.386Z,7.4
2022-12-03T03:24:56.587Z,7.3
2022-12-03T03:26:03.625Z,7.3
2022-12-03T03:27:10.205Z,7.3
2022-12-03T03:28:17.270Z,7.3
2022-12-03T03:29:24.417Z,7.3
2022-12-03T03:30:31.506Z,7.2
2022-12-03T03:31:38.736Z,7.2
2022-12-03T03:32:45.193Z,7.2
2022-12-03T03:33:52.326Z,7.2
2022-12-03T03:34:59.433Z,7.2
2022-12-03T03:36:06.507Z,7.2
2022-12-03T03:38:20.236Z,7.2
2022-12-03T03:39:27.278Z,7.3
2022-12-03T03:40:34.442Z,7.3
2022-12-03T03:41:41.608Z,7.3
2022-12-03T03:43:55.235Z,7.3
2022-12-03T03:45:02.357Z,7.3
2022-12-03T03:47:16.565Z,7.3
2022-12-03T03:48:23.657Z,7.3
2022-12-03T03:49:30.226Z,7.3
2022-12-03T03:50:37.300Z,7.3
2022-12-03T03:51:44.526Z,7.3
2022-12-03T03:52:51.566Z,7.3
2022-12-03T03:53:58.655Z,7.3
2022-12-03T03:55:05.776Z,7.3
2022-12-03T03:56:12.398Z,7.3
2022-12-03T03:57:19.429Z,7.3
2022-12-03T03:58:26.564Z,7.3
2022-12-03T03:59:33.646Z,7.3
2022-12-03T04:00:40.252Z,7.3
2022-12-03T04:01:47.504Z,7.3
2022-12-03T04:02:54.459Z,7.3
2022-12-03T04:04:01.643Z,7.3
2022-12-03T04:05:09.189Z,7.3
2022-12-03T04:06:15.249Z,7.3
2022-12-03T04:07:22.374Z,7.3
2022-12-03T04:08:29.454Z,7.3
2022-12-03T04:09:36.542Z,7.3
2022-12-03T04:10:43.662Z,7.3
2022-12-03T04:11:50.307Z,7.3
2022-12-03T04:12:57.340Z,7.3
2022-12-03T04:14:04.458Z,7.3
2022-12-03T04:15:11.572Z,7.3
2022-12-03T04:16:18.235Z,7.3
2022-12-03T04:17:25.330Z,7.3
2022-12-03T04:19:39.969Z,7.3
2022-12-03T04:20:46.599Z,7.3
2022-12-03T04:21:53.195Z,7.3
2022-12-03T04:23:00.310Z,7.3
2022-12-03T04:24:07.346Z,7.3
2022-12-03T04:25:14.503Z,7.3
2022-12-03T04:26:21.610Z,7.3
2022-12-03T04:27:28.224Z,7.3
2022-12-03T04:28:35.336Z,7.3
2022-12-03T04:29:42.407Z,7.3
2022-12-03T04:30:49.513Z,7.3
2022-12-03T04:31:56.630Z,7.3
2022-12-03T04:33:03.224Z,7.3
2022-12-03T04:34:10.302Z,7.3
2022-12-03T04:35:17.461Z,7.3
2022-12-03T04:36:23.986Z,7.3
2022-12-03T04:37:31.658Z,7.3
2022-12-03T04:38:38.256Z,7.3
2022-12-03T04:39:45.310Z,7.3
2022-12-03T04:40:52.420Z,7.3
2022-12-03T04:41:59.496Z,7.3
2022-12-03T04:43:06.574Z,7.3
2022-12-03T04:44:13.206Z,7.3
2022-12-03T04:45:20.393Z,7.3
2022-12-03T04:46:27.431Z,7.3
2022-12-03T04:47:39.641Z,7.3
2022-12-03T04:48:41.657Z,7.2
2022-12-03T04:50:55.313Z,7.2
2022-12-03T04:52:02.376Z,7.2
2022-12-03T04:53:09.507Z,7.2
2022-12-03T04:54:16.625Z,7.2
2022-12-03T04:55:23.231Z,7.2
2022-12-03T04:56:30.370Z,7.2
2022-12-03T04:57:37.485Z,7.2
2022-12-03T04:58:44.550Z,7.2
2022-12-03T04:59:51.632Z,7.2
2022-12-03T05:00:58.240Z,7.2
2022-12-03T05:02:05.462Z,7.2
2022-12-03T05:03:12.417Z,7.1
2022-12-03T05:04:19.544Z,7.2
2022-12-03T05:05:26.625Z,7.2
2022-12-03T05:06:33.274Z,7.2
2022-12-03T05:07:40.392Z,7.2
2022-12-03T05:08:47.958Z,7.1
2022-12-03T05:09:54.567Z,7.2
2022-12-03T05:12:08.296Z,7.1
2022-12-03T05:13:15.327Z,7.2
2022-12-03T05:14:22.477Z,7.2
2022-12-03T05:15:29.533Z,7.2
2022-12-03T05:16:36.804Z,7.1
2022-12-03T05:17:43.232Z,7.2
2022-12-03T05:18:50.368Z,7.2
2022-12-03T05:19:57.427Z,7.2
2022-12-03T05:21:04.958Z,7.1
2022-12-03T05:22:11.698Z,7.1
2022-12-03T05:23:18.255Z,7.2
2022-12-03T05:24:25.375Z,7.2
2022-12-03T05:25:32.459Z,7.2
2022-12-03T05:26:39.567Z,7.2
2022-12-03T05:27:46.647Z,7.1
2022-12-03T05:28:53.255Z,7.1
2022-12-03T05:30:00.371Z,7.1
2022-12-03T05:31:07.546Z,7.1
2022-12-03T05:32:14.624Z,7.1
2022-12-03T05:33:21.710Z,7.1
2022-12-03T05:34:28.257Z,7.1
2022-12-03T05:35:35.403Z,7.1
2022-12-03T05:36:42.495Z,7.1
2022-12-03T05:37:49.577Z,7.1
2022-12-03T05:38:56.664Z,7.1
2022-12-03T05:40:03.272Z,7.1
2022-12-03T05:41:10.427Z,7.1
2022-12-03T05:42:17.516Z,7
2022-12-03T05:43:24.582Z,7
2022-12-03T05:44:31.216Z,7
2022-12-03T05:45:38.257Z,7
2022-12-03T05:46:45.492Z,7
2022-12-03T05:47:52.510Z,7
2022-12-03T05:48:59.585Z,7
2022-12-03T05:50:06.218Z,7
2022-12-03T05:51:13.314Z,7
2022-12-03T05:52:20.488Z,7
2022-12-03T05:54:34.607Z,7
2022-12-03T05:55:42.638Z,7
2022-12-03T05:56:48.253Z,7
2022-12-03T05:57:55.425Z,7
2022-12-03T05:59:02.008Z,7
2022-12-03T06:00:09.610Z,7
2022-12-03T06:01:16.224Z,7
2022-12-03T06:02:23.466Z,7
2022-12-03T06:03:30.616Z,7
2022-12-03T06:04:37.476Z,7
2022-12-03T06:05:45.033Z,7
2022-12-03T06:06:51.200Z,7
2022-12-03T06:07:58.362Z,7
2022-12-03T06:09:05.420Z,7
2022-12-03T06:10:12.546Z,7
2022-12-03T06:11:19.602Z,7
2022-12-03T06:12:27.305Z,7
2022-12-03T06:13:33.284Z,7
2022-12-03T06:14:40.444Z,7
2022-12-03T06:15:47.543Z,7
2022-12-03T06:16:54.660Z,7
2022-12-03T06:18:01.259Z,7
2022-12-03T06:19:08.291Z,6.9
2022-12-03T06:20:15.476Z,6.9
2022-12-03T06:21:22.536Z,6.9
2022-12-03T06:22:29.662Z,6.9
2022-12-03T06:23:36.255Z,6.9
2022-12-03T06:24:43.442Z,6.9
2022-12-03T06:25:50.463Z,6.9
2022-12-03T06:26:57.522Z,6.9
2022-12-03T06:28:04.675Z,6.9
2022-12-03T06:29:11.257Z,6.9
2022-12-03T06:30:18.326Z,6.9
2022-12-03T06:31:25.530Z,6.9
2022-12-03T06:32:32.625Z,7
2022-12-03T06:33:39.626Z,6.9
2022-12-03T06:34:46.258Z,6.9
2022-12-03T06:35:53.353Z,6.9
2022-12-03T06:37:00.497Z,6.9
2022-12-03T06:38:07.525Z,6.9
2022-12-03T06:39:14.666Z,6.9
2022-12-03T06:40:21.246Z,6.9
2022-12-03T06:41:28.325Z,6.9
2022-12-03T06:42:35.497Z,6.9
2022-12-03T06:43:42.576Z,6.9
2022-12-03T06:44:49.663Z,6.9
2022-12-03T06:45:56.267Z,6.9
2022-12-03T06:47:03.513Z,6.9
2022-12-03T06:48:10.494Z,6.9
2022-12-03T06:49:17.545Z,6.9
2022-12-03T06:50:24.703Z,7
2022-12-03T06:51:31.268Z,6.9
2022-12-03T06:52:38.359Z,7
2022-12-03T06:53:45.495Z,7
2022-12-03T06:54:52.867Z,7
2022-12-03T06:55:59.175Z,6.9
2022-12-03T06:58:13.444Z,7
2022-12-03T06:59:20.486Z,7
2022-12-03T07:00:27.568Z,7
2022-12-03T07:01:34.271Z,7
2022-12-03T07:02:41.311Z,7
2022-12-03T07:03:48.367Z,7
2022-12-03T07:04:55.921Z,7
2022-12-03T07:06:02.604Z,7
2022-12-03T07:07:09.220Z,7
2022-12-03T07:08:16.405Z,7
2022-12-03T07:09:23.392Z,7
2022-12-03T07:10:30.573Z,7
2022-12-03T07:11:37.576Z,7
2022-12-03T07:12:44.185Z,7
2022-12-03T07:13:51.304Z,7
2022-12-03T07:14:58.367Z,7
2022-12-03T07:16:06.087Z,7
2022-12-03T07:17:12.677Z,7
2022-12-03T07:18:19.160Z,7
2022-12-03T07:19:32.152Z,7
2022-12-03T07:20:33.436Z,7
2022-12-03T07:21:40.008Z,7
2022-12-03T07:22:47.581Z,7
2022-12-03T07:23:54.217Z,7
2022-12-03T07:25:01.317Z,7
2022-12-03T07:26:08.404Z,7
2022-12-03T07:27:16.209Z,7
2022-12-03T07:28:22.627Z,7
2022-12-03T07:29:29.178Z,7
2022-12-03T07:30:36.363Z,7
2022-12-03T07:31:43.477Z,7
2022-12-03T07:32:50.606Z,7
2022-12-03T07:33:57.616Z,7
2022-12-03T07:35:04.217Z,7
2022-12-03T07:36:11.337Z,7
2022-12-03T07:37:22.934Z,7
2022-12-03T07:38:25.520Z,7
2022-12-03T07:39:32.643Z,7
2022-12-03T07:40:39.195Z,7
2022-12-03T07:41:46.345Z,7
2022-12-03T07:42:53.435Z,7
2022-12-03T07:44:00.544Z,7
2022-12-03T07:45:07.647Z,7
2022-12-03T07:46:14.297Z,7
2022-12-03T07:47:21.340Z,7
2022-12-03T07:48:28.433Z,7
2022-12-03T07:49:35.623Z,7
2022-12-03T07:50:42.655Z,7
2022-12-03T07:51:49.209Z,7
2022-12-03T07:52:56.377Z,7
2022-12-03T07:54:03.435Z,7
2022-12-03T07:55:10.557Z,7
2022-12-03T07:56:17.651Z,7
2022-12-03T07:57:24.279Z,7
2022-12-03T07:58:31.316Z,7
2022-12-03T07:59:38.448Z,7
2022-12-03T08:01:52.774Z,7
2022-12-03T08:04:06.374Z,7
2022-12-03T08:05:13.460Z,7
2022-12-03T08:06:20.567Z,7
2022-12-03T08:07:27.736Z,7
2022-12-03T08:08:34.254Z,7
2022-12-03T08:09:41.408Z,7
2022-12-03T08:10:48.445Z,7
2022-12-03T08:11:55.643Z,7
2022-12-03T08:13:02.205Z,7
2022-12-03T08:14:09.264Z,7
2022-12-03T08:15:16.420Z,7
2022-12-03T08:16:23.555Z,6.9
2022-12-03T08:17:30.578Z,6.9
2022-12-03T08:18:37.250Z,6.9
2022-12-03T08:19:44.819Z,6.9
2022-12-03T08:20:51.399Z,6.9
2022-12-03T08:22:01.412Z,6.9
2022-12-03T08:23:05.612Z,6.9
2022-12-03T08:24:12.224Z,6.9
2022-12-03T08:25:19.262Z,6.9
2022-12-03T08:26:26.469Z,6.9
2022-12-03T08:27:33.503Z,6.9
2022-12-03T08:28:40.649Z,6.9
2022-12-03T08:29:47.195Z,6.9
2022-12-03T08:30:54.315Z,6.9
2022-12-03T08:32:01.537Z,6.9
2022-12-03T08:33:08.509Z,6.9
2022-12-03T08:34:15.641Z,6.9
2022-12-03T08:35:22.216Z,6.9
2022-12-03T08:36:29.286Z,6.9
2022-12-03T08:37:36.410Z,6.9
2022-12-03T08:38:43.509Z,6.9
2022-12-03T08:39:50.622Z,6.9
2022-12-03T08:40:57.191Z,6.9
2022-12-03T08:42:09.270Z,6.9
2022-12-03T08:43:11.439Z,6.9
2022-12-03T08:45:25.673Z,6.8
2022-12-03T08:46:32.215Z,6.9
2022-12-03T08:47:39.316Z,6.8
2022-12-03T08:48:48.951Z,6.8
2022-12-03T08:49:53.530Z,6.8
2022-12-03T08:51:00.632Z,6.8
2022-12-03T08:52:07.331Z,6.8
2022-12-03T08:53:14.316Z,6.8
2022-12-03T08:54:21.429Z,6.8
2022-12-03T08:55:28.520Z,6.8
2022-12-03T08:56:35.666Z,6.8
2022-12-03T08:57:42.316Z,6.8
2022-12-03T08:58:49.292Z,6.8
2022-12-03T08:59:56.456Z,6.8
2022-12-03T09:01:03.613Z,6.8
2022-12-03T09:02:10.678Z,6.8
2022-12-03T09:03:17.240Z,6.8
2022-12-03T09:05:31.441Z,6.8
2022-12-03T09:06:38.523Z,6.8
2022-12-03T09:07:45.786Z,6.8
2022-12-03T09:08:52.269Z,6.8
2022-12-03T09:09:59.310Z,6.8
2022-12-03T09:11:06.476Z,6.8
2022-12-03T09:12:13.577Z,6.8
2022-12-03T09:13:20.671Z,6.8
2022-12-03T09:14:27.253Z,6.8
2022-12-03T09:15:34.358Z,6.8
2022-12-03T09:16:41.536Z,6.8
2022-12-03T09:17:48.623Z,6.8
2022-12-03T09:18:55.677Z,6.8
2022-12-03T09:20:02.292Z,6.8
2022-12-03T09:21:09.333Z,6.8
2022-12-03T09:22:16.488Z,6.9
2022-12-03T09:23:24.114Z,6.9
2022-12-03T09:24:30.127Z,6.8
2022-12-03T09:26:44.375Z,6.9
2022-12-03T09:27:51.528Z,6.9
2022-12-03T09:28:58.553Z,6.9
2022-12-03T09:30:05.160Z,6.9
2022-12-03T09:31:12.276Z,6.9
2022-12-03T09:32:19.478Z,6.9
2022-12-03T09:33:26.516Z,6.9
2022-12-03T09:34:33.589Z,6.9
2022-12-03T09:35:42.564Z,6.9
2022-12-03T09:36:47.247Z,6.9
2022-12-03T09:37:54.438Z,7
2022-12-03T09:39:01.506Z,6.9
2022-12-03T09:40:08.602Z,6.9
2022-12-03T09:41:15.181Z,7
2022-12-03T09:42:22.287Z,7
2022-12-03T09:43:49.506Z,7
2022-12-03T09:44:36.527Z,7
2022-12-03T09:45:43.686Z,7
2022-12-03T09:46:50.186Z,7
2022-12-03T09:47:57.319Z,7
2022-12-03T09:49:04.397Z,7
2022-12-03T09:50:11.496Z,7
2022-12-03T09:51:18.616Z,7
2022-12-03T09:52:25.188Z,7
2022-12-03T09:53:34.567Z,7
2022-12-03T09:54:41.638Z,7
2022-12-03T09:55:46.519Z,7
2022-12-03T09:56:53.663Z,7
2022-12-03T09:58:00.214Z,7
2022-12-03T09:59:07.306Z,7
2022-12-03T10:00:14.423Z,7.1
2022-12-03T10:01:21.665Z,7.1
2022-12-03T10:02:28.653Z,7.1
2022-12-03T10:03:35.247Z,7.1
2022-12-03T10:04:42.436Z,7.1
2022-12-03T10:05:49.431Z,7.1
2022-12-03T10:09:10.220Z,7.1
2022-12-03T10:10:17.346Z,7.1
2022-12-03T10:11:24.456Z,7.1
2022-12-03T10:13:38.665Z,7.1
2022-12-03T10:14:45.274Z,7.2
2022-12-03T10:15:52.360Z,7.2
2022-12-03T10:16:59.658Z,7.2
2022-12-03T10:18:06.555Z,7.2
2022-12-03T10:19:13.666Z,7.2
2022-12-03T10:20:20.238Z,7.2
2022-12-03T10:21:27.323Z,7.2
2022-12-03T10:22:34.506Z,7.2
2022-12-03T10:23:41.531Z,7.2
2022-12-03T10:24:48.630Z,7.2
2022-12-03T10:25:55.243Z,7.2
2022-12-03T10:27:02.855Z,7.2
2022-12-03T10:28:09.455Z,7.3
2022-12-03T10:29:16.546Z,7.3
2022-12-03T10:30:23.696Z,7.3
2022-12-03T10:31:30.306Z,7.3
2022-12-03T10:32:37.422Z,7.3
2022-12-03T10:33:44.474Z,7.3
2022-12-03T10:34:51.975Z,7.3
2022-12-03T10:35:58.679Z,7.3
2022-12-03T10:37:05.267Z,7.3
2022-12-03T10:38:12.369Z,7.4
2022-12-03T10:39:19.459Z,7.3
2022-12-03T10:40:26.588Z,7.3
2022-12-03T10:41:33.651Z,7.4
2022-12-03T10:42:40.265Z,7.4
2022-12-03T10:43:47.347Z,7.4
2022-12-03T10:44:54.684Z,7.4
2022-12-03T10:46:04.175Z,7.4
2022-12-03T10:47:08.325Z,7.4
2022-12-03T10:49:22.381Z,7.4
2022-12-03T10:50:29.477Z,7.4
2022-12-03T10:51:36.581Z,7.4
2022-12-03T10:52:43.376Z,7.4
2022-12-03T10:53:50.296Z,7.4
2022-12-03T10:54:57.368Z,7.5
2022-12-03T10:56:04.499Z,7.5
2022-12-03T10:57:11.643Z,7.5
2022-12-03T10:58:18.198Z,7.5
2022-12-03T10:59:25.329Z,7.5
2022-12-03T11:00:32.405Z,7.5
2022-12-03T11:01:39.622Z,7.5
2022-12-03T11:02:49.377Z,7.5
2022-12-03T11:03:53.290Z,7.5
2022-12-03T11:05:00.265Z,7.5
2022-12-03T11:06:07.365Z,7.5
2022-12-03T11:07:14.582Z,7.5
2022-12-03T11:08:21.632Z,7.6
2022-12-03T11:09:28.199Z,7.5
2022-12-03T11:10:35.353Z,7.6
2022-12-03T11:11:42.450Z,7.6
2022-12-03T11:12:49.558Z,7.6
2022-12-03T11:13:56.589Z,7.6
2022-12-03T11:15:03.203Z,7.6
2022-12-03T11:16:10.446Z,7.6
2022-12-03T11:17:17.396Z,7.6
2022-12-03T11:18:24.514Z,7.6
2022-12-03T11:19:31.658Z,7.7
2022-12-03T11:20:38.199Z,7.7
2022-12-03T11:21:45.395Z,7.7
2022-12-03T11:22:52.457Z,7.7
2022-12-03T11:23:59.509Z,7.7
2022-12-03T11:25:06.616Z,7.7
2022-12-03T11:26:18.646Z,7.7
2022-12-03T11:27:20.391Z,7.7
2022-12-03T11:28:27.399Z,7.7
2022-12-03T11:30:41.705Z,7.7
2022-12-03T11:31:48.278Z,7.7
2022-12-03T11:32:55.330Z,7.7
2022-12-03T11:34:02.485Z,7.7
2022-12-03T11:35:09.595Z,7.7
2022-12-03T11:36:16.619Z,7.7
2022-12-03T11:37:23.284Z,7.7
2022-12-03T11:38:30.349Z,7.7
2022-12-03T11:39:37.427Z,7.7
2022-12-03T11:41:51.686Z,7.7
2022-12-03T11:42:58.221Z,7.7
2022-12-03T11:44:05.382Z,7.7
2022-12-03T11:45:12.481Z,7.7
2022-12-03T11:46:19.635Z,7.7
2022-12-03T11:47:26.730Z,7.7
2022-12-03T11:48:33.250Z,7.7
2022-12-03T11:49:40.385Z,7.7
2022-12-03T11:50:47.452Z,7.7
2022-12-03T11:51:54.589Z,7.7
2022-12-03T11:53:01.676Z,7.6
2022-12-03T11:54:08.239Z,7.6
2022-12-03T11:55:15.361Z,7.6
2022-12-03T11:56:22.515Z,7.6
2022-12-03T11:57:29.668Z,7.6
2022-12-03T11:58:36.659Z,7.7
2022-12-03T11:59:43.259Z,7.6
2022-12-03T12:00:50.365Z,7.6
2022-12-03T12:01:57.443Z,7.6
2022-12-03T12:03:04.724Z,7.6
2022-12-03T12:04:11.787Z,7.6
2022-12-03T12:05:18.322Z,7.6
2022-12-03T12:06:25.546Z,7.6
2022-12-03T12:07:32.585Z,7.6
2022-12-03T12:08:39.611Z,7.6
2022-12-03T12:09:46.665Z,7.6
2022-12-03T12:12:00.446Z,7.6
2022-12-03T12:13:07.534Z,7.6
2022-12-03T12:14:14.601Z,7.6
2022-12-03T12:16:28.374Z,7.6
2022-12-03T12:17:35.480Z,7.6
2022-12-03T12:18:42.539Z,7.6
2022-12-03T12:19:54.188Z,7.6
2022-12-03T12:20:56.722Z,7.5
2022-12-03T12:22:03.337Z,7.5
2022-12-03T12:23:10.417Z,7.5
2022-12-03T12:24:17.474Z,7.5
2022-12-03T12:25:24.637Z,7.5
2022-12-03T12:26:31.222Z,7.5
2022-12-03T12:27:38.344Z,7.5
2022-12-03T12:28:45.436Z,7.5
2022-12-03T12:29:52.786Z,7.5
2022-12-03T12:30:59.781Z,7.5
2022-12-03T12:32:06.486Z,7.5
2022-12-03T12:33:13.374Z,7.5
2022-12-03T12:34:20.947Z,7.5
2022-12-03T12:35:27.506Z,7.5
2022-12-03T12:36:34.663Z,7.5
2022-12-03T12:37:47.073Z,7.5
2022-12-03T12:38:48.283Z,7.5
2022-12-03T12:39:55.692Z,7.5
2022-12-03T12:41:02.521Z,7.5
2022-12-03T12:42:09.657Z,7.5
2022-12-03T12:43:23.331Z,7.5
2022-12-03T12:44:23.345Z,7.5
2022-12-03T12:45:30.436Z,7.5
2022-12-03T12:46:47.584Z,7.4
2022-12-03T12:47:44.807Z,7.4
2022-12-03T12:48:54.276Z,7.5
2022-12-03T12:49:58.567Z,7.4
2022-12-03T12:51:05.484Z,7.4
2022-12-03T12:53:19.681Z,7.4
2022-12-03T12:54:26.274Z,7.4
2022-12-03T12:55:33.343Z,7.4
2022-12-03T12:56:40.477Z,7.4
2022-12-03T12:57:47.566Z,7.4
2022-12-03T12:58:54.705Z,7.4
2022-12-03T13:00:01.278Z,7.4
2022-12-03T13:01:08.439Z,7.4
2022-12-03T13:02:15.567Z,7.4
2022-12-03T13:03:22.696Z,7.4
2022-12-03T13:04:29.667Z,7.4
2022-12-03T13:05:36.244Z,7.4
2022-12-03T13:06:43.398Z,7.4
2022-12-03T13:07:50.553Z,7.4
2022-12-03T13:10:04.687Z,7.4
2022-12-03T13:11:11.315Z,7.4
2022-12-03T13:12:18.387Z,7.4
2022-12-03T13:13:25.555Z,7.4
2022-12-03T13:14:32.573Z,7.4
2022-12-03T13:15:42.696Z,7.4
2022-12-03T13:16:46.396Z,7.4
2022-12-03T13:17:53.376Z,7.4
2022-12-03T13:20:08.229Z,7.4
2022-12-03T13:21:14.684Z,7.4
2022-12-03T13:22:21.296Z,7.4
2022-12-03T13:23:28.680Z,7.4
2022-12-03T13:24:35.557Z,7.4
2022-12-03T13:26:00.669Z,7.4
2022-12-03T13:26:49.181Z,7.4
2022-12-03T13:27:56.305Z,7.4
2022-12-03T13:29:03.437Z,7.4
2022-12-03T13:30:10.514Z,7.3
2022-12-03T13:31:17.739Z,7.3
2022-12-03T13:32:24.187Z,7.4
2022-12-03T13:34:38.361Z,7.3
2022-12-03T13:35:45.477Z,7.4
2022-12-03T13:36:57.668Z,7.4
2022-12-03T13:37:59.694Z,7.4
2022-12-03T13:39:06.330Z,7.4
2022-12-03T13:40:13.426Z,7.4
2022-12-03T13:41:20.535Z,7.4
2022-12-03T13:42:27.590Z,7.4
2022-12-03T13:43:34.203Z,7.3
2022-12-03T13:44:41.333Z,7.3
2022-12-03T13:45:48.469Z,7.3
2022-12-03T13:46:55.518Z,7.3
2022-12-03T13:48:02.711Z,7.3
2022-12-03T13:49:09.190Z,7.3
2022-12-03T13:50:16.305Z,7.3
2022-12-03T13:51:23.442Z,7.3
2022-12-03T13:52:30.517Z,7.3
2022-12-03T13:53:37.587Z,7.3
2022-12-03T13:54:44.256Z,7.3
2022-12-03T13:55:51.354Z,7.3
2022-12-03T13:56:58.442Z,7.3
2022-12-03T13:58:05.594Z,7.3
2022-12-03T13:59:12.628Z,7.2
2022-12-03T14:00:19.187Z,7.2
2022-12-03T14:01:26.415Z,7.2
2022-12-03T14:02:33.584Z,7.2
2022-12-03T14:03:40.632Z,7.2
2022-12-03T14:04:47.626Z,7.2
2022-12-03T14:05:54.224Z,7.2
2022-12-03T14:07:01.333Z,7.2
2022-12-03T14:08:08.615Z,7.2
2022-12-03T14:09:15.578Z,7.2
2022-12-03T14:10:22.656Z,7.2
2022-12-03T14:11:29.228Z,7.2
2022-12-03T14:12:36.403Z,7.1
2022-12-03T14:13:43.498Z,7.2
2022-12-03T14:15:57.757Z,7.2
2022-12-03T14:17:04.283Z,7.1
2022-12-03T14:18:11.391Z,7.2
2022-12-03T14:19:18.487Z,7.1
2022-12-03T14:20:25.554Z,7.1
2022-12-03T14:21:32.654Z,7.1
2022-12-03T14:23:46.397Z,7.1
2022-12-03T14:24:53.470Z,7.1
2022-12-03T14:26:00.558Z,7.2
2022-12-03T14:27:07.658Z,7.2
2022-12-03T14:28:14.303Z,7.1
2022-12-03T14:29:21.350Z,7.1
2022-12-03T14:30:28.479Z,7.1
2022-12-03T14:31:35.773Z,7.1
2022-12-03T14:32:42.768Z,7.1
2022-12-03T14:33:49.346Z,7.1
2022-12-03T14:34:56.380Z,7.1
2022-12-03T14:36:03.473Z,7.1
2022-12-03T14:38:17.679Z,7.1
2022-12-03T14:39:24.283Z,7
2022-12-03T14:40:31.407Z,7
2022-12-03T14:41:39.005Z,7
2022-12-03T14:42:45.659Z,7
2022-12-03T14:43:52.721Z,7
2022-12-03T14:44:59.254Z,7
2022-12-03T14:46:06.475Z,7
2022-12-03T14:47:13.517Z,7
2022-12-03T14:48:20.613Z,7
2022-12-03T14:49:27.714Z,7
2022-12-03T14:50:34.252Z,7
2022-12-03T14:51:41.490Z,7
2022-12-03T14:52:48.596Z,7
2022-12-03T14:53:55.619Z,7
2022-12-03T14:55:02.214Z,7
2022-12-03T14:57:16.441Z,7
2022-12-03T14:58:23.507Z,7
2022-12-03T14:59:30.634Z,7
2022-12-03T15:00:37.207Z,7
2022-12-03T15:01:44.372Z,7
2022-12-03T15:02:51.579Z,7
2022-12-03T15:03:58.518Z,7
2022-12-03T15:05:05.620Z,7
2022-12-03T15:06:12.204Z,7
2022-12-03T15:07:19.313Z,7
2022-12-03T15:08:26.454Z,7
2022-12-03T15:09:33.495Z,7
2022-12-03T15:10:40.646Z,7
2022-12-03T15:11:47.225Z,7
2022-12-03T15:12:54.446Z,6.9
2022-12-03T15:14:01.476Z,6.9
2022-12-03T15:15:08.501Z,6.9
2022-12-03T15:16:15.715Z,6.9
2022-12-03T15:17:30.990Z,6.9
2022-12-03T15:18:29.325Z,6.9
2022-12-03T15:19:36.428Z,6.9
2022-12-03T15:20:43.533Z,6.9
2022-12-03T15:21:50.635Z,6.9
2022-12-03T15:22:57.277Z,6.9
2022-12-03T15:24:04.365Z,6.9
2022-12-03T15:25:11.488Z,6.9
2022-12-03T15:27:25.698Z,6.8
2022-12-03T15:28:32.231Z,6.8
2022-12-03T15:29:39.327Z,6.8
2022-12-03T15:30:46.474Z,6.8
2022-12-03T15:31:54.211Z,6.8
2022-12-03T15:33:00.701Z,6.8
2022-12-03T15:34:07.209Z,6.8
2022-12-03T15:35:14.348Z,6.8
2022-12-03T15:36:21.467Z,6.8
2022-12-03T15:38:35.704Z,6.8
2022-12-03T15:39:48.219Z,6.8
2022-12-03T15:40:49.344Z,6.8
2022-12-03T15:41:56.463Z,6.8
2022-12-03T15:43:03.683Z,6.8
2022-12-03T15:44:10.692Z,6.7
2022-12-03T15:45:17.743Z,6.7
2022-12-03T15:46:24.540Z,6.7
2022-12-03T15:47:31.466Z,6.7
2022-12-03T15:48:38.664Z,6.7
2022-12-03T15:49:45.679Z,6.8
2022-12-03T15:50:52.339Z,6.7
2022-12-03T15:51:59.350Z,6.7
2022-12-03T15:53:06.516Z,6.7
2022-12-03T15:54:13.637Z,6.7
2022-12-03T15:55:20.179Z,6.7
2022-12-03T15:56:27.273Z,6.7
2022-12-03T15:57:34.401Z,6.7
2022-12-03T15:58:41.584Z,6.7
2022-12-03T15:59:48.613Z,6.7
2022-12-03T16:00:55.702Z,6.7
2022-12-03T16:02:02.401Z,6.7
2022-12-03T16:03:09.438Z,6.7
2022-12-03T16:04:16.512Z,6.7
2022-12-03T16:06:30.210Z,6.6
2022-12-03T16:07:37.293Z,6.6
2022-12-03T16:08:44.560Z,6.6
2022-12-03T16:09:51.858Z,6.6
2022-12-03T16:10:58.603Z,6.6
2022-12-03T16:12:05.156Z,6.6
2022-12-03T16:13:12.350Z,6.6
2022-12-03T16:14:19.470Z,6.6
2022-12-03T16:15:27.144Z,6.6
2022-12-03T16:16:33.664Z,6.6
2022-12-03T16:17:40.236Z,6.6
2022-12-03T16:19:54.893Z,6.6
2022-12-03T16:21:01.529Z,6.6